CT1AKV-10 Estrada Real PT current weather conditions

sailwx.info

Wind from 337 at 2 knots gusting 6

Air temperature 17.2° C
Dewpoint -14.7° C

Last reported at 2015-May-21 21:15 UTC.
Time now 2015-May-22 08:28 UTC

Location: N 39°11' W 008°44'.
View on Google Maps.

See reports from other nearby stations

  
Tides and Currents Weather Stations Pressure Air Temp Water Temp Dewpoint Dewpoint Depression Visibility Wind Speed Wind Dir Waves Ship Positions
date/time (UTC)wind fromknots sea level pressurealtimeterstation pressurevisibilityair tempwater tempwave heightnotes
2015-May-21 21:15 337 2 gusting 6 17.2
2015-May-21 21:00 324 2 gusting 6 17.8
2015-May-21 20:45 306 2 gusting 6 17.8
2015-May-21 20:30 307 3 gusting 6 18.3
2015-May-21 20:15 322 3 gusting 9 18.3
2015-May-21 20:00 295 3 gusting 8 18.9
2015-May-21 19:45 316 4 gusting 9 19.4
2015-May-21 19:30 310 4 gusting 9 21.1
2015-May-21 19:15 310 4 gusting 9 21.7
2015-May-21 19:00 314 5 gusting 12 23.9
2015-May-21 18:45 317 5 gusting 13 25.0
2015-May-21 18:30 317 6 gusting 13 25.6
2015-May-21 18:15 320 6 gusting 12 26.7
2015-May-21 18:00 321 6 gusting 13 26.7
2015-May-21 17:45 315 6 gusting 13 27.2
2015-May-21 17:30 313 6 gusting 14 27.8
2015-May-21 17:15 314 6 gusting 15 28.3
2015-May-21 17:00 329 6 gusting 14 28.9
2015-May-21 16:45 327 4 gusting 13 30.0
2015-May-21 16:30 287 4 gusting 15 30.0
2015-May-21 16:15 359 1 gusting 6 32.2
2015-May-21 16:00 017 3 gusting 9 31.7
2015-May-21 15:45 347 2 gusting 9 31.1
2015-May-21 15:30 347 2 gusting 9 31.7
2015-May-21 15:15 046 2 gusting 9 31.7
2015-May-21 15:00 012 2 gusting 8 31.1
2015-May-21 14:45 038 2 gusting 7 30.6
2015-May-21 14:30 019 3 gusting 10 30.6
2015-May-21 14:15 354 3 gusting 9 30.6
2015-May-21 14:00 358 3 gusting 13 30.0
2015-May-21 13:45 029 3 gusting 8 30.0
2015-May-21 13:30 065 2 gusting 7 30.0
2015-May-21 13:15 001 2 gusting 8 29.4
2015-May-21 13:00 044 2 gusting 9 29.4
2015-May-21 12:45 033 3 gusting 9 28.3
2015-May-21 12:30 018 4 gusting 9 27.8
2015-May-21 12:15 038 3 gusting 9 28.3
2015-May-21 12:00 030 3 gusting 12 28.3
2015-May-21 11:45 050 2 gusting 7 27.8
2015-May-21 11:30 039 4 gusting 9 27.2
2015-May-21 11:15 057 3 gusting 9 26.7
2015-May-21 11:00 022 3 gusting 12 26.1
2015-May-21 10:45 034 3 gusting 9 25.6
2015-May-21 10:30 055 2 gusting 7 25.0
2015-May-21 10:15 021 3 gusting 11 24.4
2015-May-21 10:00 029 3 gusting 9 23.9
2015-May-21 09:45 049 3 gusting 9 22.8
2015-May-21 09:30 019 4 gusting 11 22.2
2015-May-21 09:15 029 3 gusting 9 21.7
2015-May-21 09:00 031 4 gusting 11 21.1
2015-May-21 08:45 016 3 gusting 11 21.1
2015-May-21 08:30 015 4 gusting 10 20.6
2015-May-21 08:15 030 4 gusting 12 20.6
2015-May-21 08:00 007 3 gusting 9 20.0
2015-May-21 07:45 027 4 gusting 10 19.4
2015-May-21 07:30 018 3 gusting 9 18.3
2015-May-21 07:15 358 3 gusting 10 17.2
2015-May-21 07:00 004 2 gusting 7 15.0
2015-May-21 06:45 029 2 gusting 7 13.9
2015-May-21 06:30 018 2 gusting 6 13.3
2015-May-21 06:15 020 2 gusting 6 12.8
2015-May-21 06:00 023 2 gusting 6 12.2
2015-May-21 05:45 024 0 gusting 5 10.6
2015-May-21 05:30 336 0 gusting 3 10.6
2015-May-21 05:15 344 0 gusting 3 10.0
2015-May-21 05:00 339 1 gusting 4 10.0
2015-May-21 04:45 306 0 gusting 3 10.0
2015-May-21 04:30 334 0 gusting 3 10.6
2015-May-21 04:15 329 1 gusting 5 10.6
2015-May-21 04:00 321 1 gusting 5 10.6
2015-May-21 03:45 316 2 gusting 6 10.6
2015-May-21 03:30 302 3 gusting 6 10.6
2015-May-21 03:15 310 1 gusting 4 10.6
2015-May-21 03:00 291 1 gusting 6 11.1
2015-May-21 02:45 310 1 gusting 6 11.1
2015-May-21 02:30 326 1 gusting 3 11.7
2015-May-21 02:15 312 1 gusting 6 11.7
2015-May-21 02:00 302 1 gusting 5 11.7
2015-May-21 01:45 306 1 gusting 5 12.2
2015-May-21 01:30 315 2 gusting 6 12.2
2015-May-21 01:15 315 2 gusting 7 12.2
2015-May-21 01:00 309 3 gusting 6 12.8
2015-May-21 00:45 329 3 gusting 6 12.8
2015-May-21 00:30 324 3 gusting 8 12.8
2015-May-21 00:15 308 3 gusting 7 12.8
2015-May-21 00:00 325 2 gusting 6 12.8
2015-May-20 23:45 326 3 gusting 6 13.3
2015-May-20 23:30 337 3 gusting 6 13.3
2015-May-20 23:15 002 1 gusting 6 12.8
2015-May-20 23:00 334 1 gusting 5 12.8
2015-May-20 22:45 341 2 gusting 4 13.3
2015-May-20 22:30 328 1 gusting 5 13.3
2015-May-20 22:15 325 1 gusting 5 13.3
2015-May-20 22:00 332 3 gusting 7 13.9
2015-May-20 21:45 332 3 gusting 7 13.9
2015-May-20 21:30 336 3 gusting 9 13.9
2015-May-20 21:15 344 3 gusting 9 13.9
2015-May-20 21:00 348 4 gusting 13 14.4
2015-May-20 20:45 340 4 gusting 12 14.4
2015-May-20 20:30 329 5 gusting 12 14.4
2015-May-20 20:15 323 4 gusting 9 14.4
2015-May-20 20:00 329 5 gusting 15 15.0
2015-May-20 19:45 339 5 gusting 13 15.6
2015-May-20 19:30 324 5 gusting 13 15.6
2015-May-20 19:15 322 6 gusting 17 16.7
2015-May-20 19:00 307 6 gusting 13 17.2
2015-May-20 18:45 328 6 gusting 15 18.3
2015-May-20 18:30 300 7 gusting 18 18.9
2015-May-20 18:15 313 8 gusting 19 18.9
2015-May-20 18:00 322 7 gusting 18 20.6
2015-May-20 17:45 325 6 gusting 12 21.7
2015-May-20 17:30 331 6 gusting 18 21.7
2015-May-20 17:15 317 7 gusting 17 22.2
2015-May-20 17:00 309 7 gusting 16 22.2
2015-May-20 16:45 329 6 gusting 13 22.8
2015-May-20 16:30 336 7 gusting 19 22.8
2015-May-20 16:15 332 7 gusting 16 23.3
2015-May-20 16:00 320 7 gusting 18 23.3
2015-May-20 15:45 307 7 gusting 16 23.9
2015-May-20 15:30 328 6 gusting 14 25.0
2015-May-20 15:15 328 6 gusting 14 25.0
2015-May-20 15:00 343 6 gusting 18 25.6
2015-May-20 14:45 314 7 gusting 15 25.6
2015-May-20 14:30 328 6 gusting 14 25.6
2015-May-20 14:15 319 6 gusting 13 25.6
2015-May-20 14:00 356 6 gusting 17 26.1
2015-May-20 13:45 344 6 gusting 13 25.6
2015-May-20 13:30 323 7 gusting 14 25.6
2015-May-20 13:15 342 5 gusting 13 26.1
2015-May-20 13:00 350 6 gusting 13 26.1
2015-May-20 12:45 329 5 gusting 14 26.7
2015-May-20 12:30 357 5 gusting 14 26.1
2015-May-20 12:15 347 6 gusting 13 25.6
2015-May-20 12:00 346 6 gusting 15 25.0
2015-May-20 11:45 339 5 gusting 13 25.0
2015-May-20 11:30 002 5 gusting 12 25.0
2015-May-20 11:15 331 5 gusting 11 24.4
2015-May-20 11:00 338 5 gusting 13 24.4